createdAt,value
2023-01-15T00:01:01.550Z,1.61
2023-01-15T00:03:45.873Z,1.62
2023-01-15T00:06:22.499Z,1.58
2023-01-15T00:09:04.813Z,1.75
2023-01-15T00:11:33.763Z,1.70
2023-01-15T00:14:13.043Z,1.76
2023-01-15T00:16:48.961Z,1.77
2023-01-15T00:19:21.867Z,1.72
2023-01-15T00:22:00.793Z,1.73
2023-01-15T00:24:48.985Z,1.74
2023-01-15T00:27:39.097Z,1.65
2023-01-15T00:30:20.731Z,1.68
2023-01-15T00:32:55.804Z,1.64
2023-01-15T00:35:40.349Z,1.71
2023-01-15T00:38:13.132Z,1.79
2023-01-15T00:40:55.289Z,1.60
2023-01-15T00:43:29.134Z,1.68
2023-01-15T00:46:07.140Z,1.76
2023-01-15T00:48:39.048Z,1.73
2023-01-15T00:51:14.899Z,1.70
2023-01-15T00:53:47.102Z,1.74
2023-01-15T00:56:23.779Z,1.68
2023-01-15T00:59:05.017Z,1.59
2023-01-15T01:01:42.423Z,1.58
2023-01-15T01:04:24.211Z,1.47
2023-01-15T01:07:03.370Z,1.50
2023-01-15T01:09:44.108Z,1.46
2023-01-15T01:12:15.314Z,1.39
2023-01-15T01:14:49.219Z,1.54
2023-01-15T01:17:27.562Z,1.47
2023-01-15T01:23:01.452Z,1.32
2023-01-15T01:25:35.718Z,1.19
2023-01-15T01:28:16.869Z,1.13
2023-01-15T01:30:55.072Z,1.17
2023-01-15T01:33:36.355Z,1.17
2023-01-15T01:36:16.495Z,1.12
2023-01-15T01:38:56.773Z,1.15
2023-01-15T01:41:27.506Z,1.07
2023-01-15T01:44:38.919Z,1.15
2023-01-15T01:47:26.310Z,1.13
2023-01-15T01:50:13.430Z,1.10
2023-01-15T01:53:00.525Z,1.14
2023-01-15T01:55:43.354Z,1.01
2023-01-15T01:58:16.706Z,1.01
2023-01-15T02:01:03.180Z,1.06
2023-01-15T02:03:48.759Z,1.07
2023-01-15T02:06:31.249Z,1.04
2023-01-15T02:09:18.567Z,1.03
2023-01-15T02:11:55.976Z,1.08
2023-01-15T02:15:07.640Z,1.01
2023-01-15T02:18:17.109Z,1.02
2023-01-15T02:21:08.837Z,0.91
2023-01-15T02:24:10.520Z,0.92
2023-01-15T02:27:23.131Z,0.80
2023-01-15T02:30:35.537Z,0.79
2023-01-15T02:33:29.250Z,0.90
2023-01-15T02:36:13.068Z,1.02
2023-01-15T02:38:59.076Z,0.95
2023-01-15T02:41:42.107Z,0.93
2023-01-15T02:44:23.569Z,0.96
2023-01-15T02:47:06.130Z,0.83
2023-01-15T02:49:52.502Z,0.82
2023-01-15T02:52:46.666Z,0.98
2023-01-15T02:55:29.276Z,0.99
2023-01-15T02:58:08.591Z,0.99
2023-01-15T03:00:53.659Z,0.93
2023-01-15T03:03:40.355Z,1.00
2023-01-15T03:06:40.846Z,1.00
2023-01-15T03:09:21.954Z,0.98
2023-01-15T03:12:14.468Z,0.92
2023-01-15T03:15:44.786Z,1.01
2023-01-15T03:18:28.749Z,0.85
2023-01-15T03:21:10.860Z,0.89
2023-01-15T03:23:57.452Z,0.88
2023-01-15T03:26:31.104Z,0.81
2023-01-15T03:29:04.081Z,0.84
2023-01-15T03:31:37.607Z,0.88
2023-01-15T03:34:18.982Z,0.80
2023-01-15T03:36:52.529Z,0.82
2023-01-15T03:39:32.613Z,0.88
2023-01-15T03:42:33.961Z,0.95
2023-01-15T03:45:27.465Z,1.04
2023-01-15T03:48:24.995Z,0.96
2023-01-15T03:51:23.793Z,1.01
2023-01-15T03:54:02.960Z,1.01
2023-01-15T03:56:58.281Z,0.99
2023-01-15T03:59:56.019Z,1.05
2023-01-15T04:02:42.710Z,1.01
2023-01-15T04:05:24.494Z,1.02
2023-01-15T04:08:09.166Z,0.96
2023-01-15T04:11:04.322Z,0.94
2023-01-15T04:13:48.574Z,0.90
2023-01-15T04:16:33.453Z,0.96
2023-01-15T04:19:09.974Z,1.00
2023-01-15T04:22:00.840Z,0.95
2023-01-15T04:24:33.675Z,0.98
2023-01-15T04:27:13.384Z,0.91
2023-01-15T04:29:48.186Z,0.94
2023-01-15T04:32:23.770Z,1.03
2023-01-15T04:34:57.657Z,1.01
2023-01-15T04:37:30.787Z,1.09
2023-01-15T04:40:04.013Z,1.03
2023-01-15T04:43:20.434Z,0.97
2023-01-15T04:45:55.681Z,0.98
2023-01-15T04:48:29.420Z,0.97
2023-01-15T04:51:07.633Z,1.04
2023-01-15T04:53:45.017Z,1.04
2023-01-15T04:56:26.498Z,0.99
2023-01-15T04:58:58.497Z,1.01
2023-01-15T05:01:32.287Z,1.07
2023-01-15T05:04:08.067Z,1.01
2023-01-15T05:06:45.166Z,0.98
2023-01-15T05:09:16.951Z,1.02
2023-01-15T05:12:05.065Z,0.99
2023-01-15T05:14:40.844Z,1.14
2023-01-15T05:17:18.247Z,1.01
2023-01-15T05:20:00.351Z,1.03
2023-01-15T05:22:47.952Z,1.02
2023-01-15T05:25:16.908Z,1.13
2023-01-15T05:27:47.869Z,1.08
2023-01-15T05:30:29.109Z,1.15
2023-01-15T05:32:57.472Z,1.11
2023-01-15T05:35:31.596Z,1.16
2023-01-15T05:38:10.743Z,1.09
2023-01-15T05:40:43.166Z,1.05
2023-01-15T05:43:17.532Z,1.03
2023-01-15T05:45:48.221Z,1.10
2023-01-15T05:48:29.835Z,1.12
2023-01-15T05:51:10.142Z,1.14
2023-01-15T05:53:47.708Z,1.07
2023-01-15T05:56:29.037Z,1.05
2023-01-15T05:59:06.659Z,1.04
2023-01-15T06:01:45.270Z,1.10
2023-01-15T06:04:18.275Z,1.15
2023-01-15T06:06:58.792Z,1.11
2023-01-15T06:09:38.315Z,1.13
2023-01-15T06:12:17.273Z,1.21
2023-01-15T06:14:56.640Z,1.22
2023-01-15T06:17:34.230Z,1.30
2023-01-15T06:20:04.729Z,1.31
2023-01-15T06:22:39.487Z,1.22
2023-01-15T06:25:27.481Z,1.26
2023-01-15T06:27:58.932Z,1.28
2023-01-15T06:30:32.672Z,1.32
2023-01-15T06:33:03.610Z,1.36
2023-01-15T06:35:40.131Z,1.43
2023-01-15T06:38:15.930Z,1.37
2023-01-15T06:40:57.481Z,1.38
2023-01-15T06:43:46.119Z,1.54
2023-01-15T06:46:39.760Z,1.63
2023-01-15T06:49:17.443Z,1.54
2023-01-15T06:51:50.573Z,1.59
2023-01-15T06:54:23.819Z,1.64
2023-01-15T06:56:55.586Z,1.63
2023-01-15T06:59:25.619Z,1.54
2023-01-15T07:02:14.811Z,1.66
2023-01-15T07:04:44.507Z,1.73
2023-01-15T07:07:23.092Z,1.81
2023-01-15T07:09:53.648Z,1.73
2023-01-15T07:12:29.457Z,1.80
2023-01-15T07:15:09.670Z,1.83
2023-01-15T07:17:46.626Z,1.95
2023-01-15T07:20:23.595Z,1.98
2023-01-15T07:23:06.534Z,2.00
2023-01-15T07:25:39.967Z,2.04
2023-01-15T07:28:29.324Z,2.10
2023-01-15T07:31:03.170Z,2.10
2023-01-15T07:33:34.304Z,2.17
2023-01-15T07:36:12.610Z,2.23
2023-01-15T07:38:46.048Z,2.27
2023-01-15T07:41:37.414Z,2.36
2023-01-15T07:44:28.352Z,2.41
2023-01-15T07:47:27.047Z,2.37
2023-01-15T07:50:01.071Z,2.42
2023-01-15T07:52:39.903Z,2.55
2023-01-15T07:55:15.520Z,2.50
2023-01-15T07:57:47.719Z,2.54
2023-01-15T08:00:23.092Z,2.58
2023-01-15T08:02:55.359Z,2.58
2023-01-15T08:05:29.155Z,2.65
2023-01-15T08:08:12.067Z,2.74
2023-01-15T08:11:04.482Z,2.75
2023-01-15T08:13:58.129Z,2.76
2023-01-15T08:16:31.962Z,2.71
2023-01-15T08:19:05.745Z,2.85
2023-01-15T08:21:40.166Z,2.85
2023-01-15T08:24:18.314Z,2.82
2023-01-15T08:27:00.114Z,2.78
2023-01-15T08:29:39.408Z,2.77
2023-01-15T08:32:12.073Z,2.80
2023-01-15T08:34:56.732Z,2.86
2023-01-15T08:37:37.403Z,2.92
2023-01-15T08:40:19.132Z,2.96
2023-01-15T08:42:58.211Z,2.88
2023-01-15T08:45:35.581Z,2.92
2023-01-15T08:48:10.867Z,3.02
2023-01-15T08:50:50.595Z,3.14
2023-01-15T08:53:37.329Z,3.27
2023-01-15T08:56:23.051Z,3.37
2023-01-15T08:58:55.933Z,3.47
2023-01-15T09:01:36.631Z,3.39
2023-01-15T09:04:24.388Z,3.46
2023-01-15T09:06:54.681Z,3.54
2023-01-15T09:09:31.051Z,3.45
2023-01-15T09:12:04.577Z,3.46
2023-01-15T09:14:58.504Z,3.48
2023-01-15T09:17:35.745Z,3.48
2023-01-15T09:20:24.815Z,3.47
2023-01-15T09:23:04.470Z,3.46
2023-01-15T09:25:41.810Z,3.50
2023-01-15T09:28:18.044Z,3.53
2023-01-15T09:30:49.755Z,3.46
2023-01-15T09:33:27.066Z,3.52
2023-01-15T09:35:57.926Z,3.70
2023-01-15T09:38:36.065Z,3.82
2023-01-15T09:41:39.788Z,3.93
2023-01-15T09:44:45.196Z,4.02
2023-01-15T09:47:41.389Z,4.13
2023-01-15T09:50:30.652Z,4.31
2023-01-15T09:53:39.945Z,4.40
2023-01-15T09:56:31.821Z,4.47
2023-01-15T09:59:12.568Z,4.63
2023-01-15T10:01:57.141Z,4.68
2023-01-15T10:04:49.463Z,4.74
2023-01-15T10:07:56.615Z,4.80
2023-01-15T10:10:43.046Z,4.74
2023-01-15T10:13:42.596Z,4.70
2023-01-15T10:16:35.648Z,4.81
2023-01-15T10:19:07.048Z,4.94
2023-01-15T10:22:02.172Z,5.01
2023-01-15T10:24:54.947Z,5.18
2023-01-15T10:27:38.375Z,5.39
2023-01-15T10:30:48.540Z,5.29
2023-01-15T10:33:33.128Z,5.45
2023-01-15T10:36:24.461Z,5.38
2023-01-15T10:39:26.753Z,5.33
2023-01-15T10:42:48.744Z,5.37
2023-01-15T10:45:31.154Z,5.14
2023-01-15T10:48:16.284Z,5.38
2023-01-15T10:50:52.868Z,5.51
2023-01-15T10:53:46.242Z,5.33
2023-01-15T10:56:43.362Z,5.46
2023-01-15T10:59:33.994Z,5.51
2023-01-15T11:02:39.557Z,5.56
2023-01-15T11:05:25.755Z,5.51
2023-01-15T11:08:45.280Z,5.41
2023-01-15T11:12:07.777Z,5.55
2023-01-15T11:15:07.476Z,5.64
2023-01-15T11:18:11.292Z,5.75
2023-01-15T11:20:50.148Z,5.59
2023-01-15T11:23:23.528Z,5.69
2023-01-15T11:26:09.560Z,5.71
2023-01-15T11:28:46.634Z,5.66
2023-01-15T11:31:18.371Z,5.66
2023-01-15T11:34:08.627Z,5.70
2023-01-15T11:36:44.972Z,5.71
2023-01-15T11:39:29.179Z,5.75
2023-01-15T11:42:27.679Z,5.86
2023-01-15T11:45:23.236Z,5.98
2023-01-15T11:48:18.819Z,6.05
2023-01-15T11:51:05.387Z,6.17
2023-01-15T11:53:57.823Z,6.20
2023-01-15T11:56:36.785Z,6.26
2023-01-15T11:59:14.563Z,6.18
2023-01-15T12:02:00.824Z,6.27
2023-01-15T12:04:57.826Z,6.30
2023-01-15T12:07:36.463Z,6.26
2023-01-15T12:10:56.879Z,6.26
2023-01-15T12:13:54.218Z,6.26
2023-01-15T12:20:32.131Z,6.17
2023-01-15T12:23:38.706Z,6.24
2023-01-15T12:26:36.581Z,6.31
2023-01-15T12:29:36.552Z,6.28
2023-01-15T12:32:23.690Z,6.35
2023-01-15T12:35:23.761Z,6.40
2023-01-15T12:38:25.294Z,6.33
2023-01-15T12:41:20.223Z,6.47
2023-01-15T12:44:21.692Z,6.66
2023-01-15T12:47:16.849Z,6.68
2023-01-15T12:50:02.564Z,6.66
2023-01-15T12:52:44.465Z,6.66
2023-01-15T12:55:34.338Z,6.73
2023-01-15T12:58:17.652Z,6.72
2023-01-15T13:00:53.247Z,6.73
2023-01-15T13:03:55.713Z,6.74
2023-01-15T13:06:30.449Z,6.76
2023-01-15T13:09:19.346Z,6.74
2023-01-15T13:11:57.305Z,6.70
2023-01-15T13:14:34.166Z,6.74
2023-01-15T13:17:25.135Z,6.73
2023-01-15T13:20:30.797Z,6.73
2023-01-15T13:23:25.153Z,6.73
2023-01-15T13:26:47.535Z,6.69
2023-01-15T13:29:42.457Z,6.80
2023-01-15T13:32:27.806Z,6.85
2023-01-15T13:35:12.722Z,6.82
2023-01-15T13:37:52.717Z,6.79
2023-01-15T13:40:43.648Z,6.82
2023-01-15T13:43:40.168Z,6.80
2023-01-15T13:46:17.724Z,6.75
2023-01-15T13:49:02.424Z,6.66
2023-01-15T13:51:44.530Z,6.64
2023-01-15T13:54:25.908Z,6.66
2023-01-15T13:57:09.401Z,6.63
2023-01-15T13:59:55.089Z,6.64
2023-01-15T14:02:37.360Z,6.59
2023-01-15T14:05:42.329Z,6.60
2023-01-15T14:08:17.773Z,6.56
2023-01-15T14:11:00.408Z,6.47
2023-01-15T14:14:09.544Z,6.46
2023-01-15T14:17:11.343Z,6.48
2023-01-15T14:20:15.507Z,6.49
2023-01-15T14:23:08.743Z,6.45
2023-01-15T14:26:01.773Z,6.42
2023-01-15T14:29:22.113Z,6.43
2023-01-15T14:32:49.497Z,6.38
2023-01-15T14:35:26.602Z,6.37
2023-01-15T14:38:07.688Z,6.33
2023-01-15T14:41:07.977Z,6.35
2023-01-15T14:43:38.254Z,6.26
2023-01-15T14:46:29.760Z,6.33
2023-01-15T14:49:05.656Z,6.31
2023-01-15T14:51:51.778Z,6.26
2023-01-15T14:54:26.050Z,6.28
2023-01-15T14:57:06.768Z,6.32
2023-01-15T14:59:52.662Z,6.29
2023-01-15T15:02:38.106Z,6.18
2023-01-15T15:05:25.032Z,6.22
2023-01-15T15:08:03.328Z,6.18
2023-01-15T15:10:43.705Z,6.25
2023-01-15T15:13:39.693Z,6.28
2023-01-15T15:16:36.215Z,6.21
2023-01-15T15:19:58.791Z,6.25
2023-01-15T15:22:38.638Z,6.30
2023-01-15T15:25:21.638Z,6.31
2023-01-15T15:28:13.467Z,6.32
2023-01-15T15:34:42.091Z,6.26
2023-01-15T15:37:31.022Z,6.31
2023-01-15T15:40:37.578Z,6.25
2023-01-15T15:43:50.724Z,6.28
2023-01-15T15:46:51.455Z,6.25
2023-01-15T15:49:48.745Z,6.31
2023-01-15T15:52:29.403Z,6.24
2023-01-15T15:55:07.178Z,6.25
2023-01-15T15:57:46.371Z,6.29
2023-01-15T16:00:26.132Z,6.28
2023-01-15T16:03:10.725Z,6.25
2023-01-15T16:06:02.425Z,6.24
2023-01-15T16:08:43.228Z,6.25
2023-01-15T16:11:28.974Z,6.26
2023-01-15T16:14:12.719Z,6.27
2023-01-15T16:16:52.795Z,6.28
2023-01-15T16:19:38.481Z,6.32
2023-01-15T16:22:23.223Z,6.34
2023-01-15T16:25:01.420Z,6.25
2023-01-15T16:27:37.880Z,6.26
2023-01-15T16:30:23.214Z,6.21
2023-01-15T16:33:00.319Z,6.18
2023-01-15T16:35:42.104Z,6.15
2023-01-15T16:38:27.714Z,6.21
2023-01-15T16:41:16.078Z,6.17
2023-01-15T16:44:03.541Z,6.15
2023-01-15T16:46:59.972Z,6.20
2023-01-15T16:49:39.848Z,6.20
2023-01-15T16:52:47.995Z,6.28
2023-01-15T16:55:52.274Z,6.20
2023-01-15T16:58:44.814Z,6.21
2023-01-15T17:01:48.747Z,6.17
2023-01-15T17:04:47.415Z,6.14
2023-01-15T17:07:53.425Z,6.04
2023-01-15T17:10:34.476Z,6.07
2023-01-15T17:13:25.443Z,6.10
2023-01-15T17:16:25.970Z,6.05
2023-01-15T17:19:11.519Z,5.98
2023-01-15T17:21:48.828Z,6.00
2023-01-15T17:24:33.060Z,5.97
2023-01-15T17:27:06.561Z,5.80
2023-01-15T17:29:46.928Z,5.81
2023-01-15T17:32:45.560Z,5.83
2023-01-15T17:35:42.882Z,5.90
2023-01-15T17:38:20.198Z,5.83
2023-01-15T17:40:57.651Z,5.83
2023-01-15T17:43:33.776Z,5.83
2023-01-15T17:46:13.991Z,5.76
2023-01-15T17:48:54.555Z,5.73
2023-01-15T17:51:36.005Z,5.73
2023-01-15T17:54:40.231Z,5.67
2023-01-15T17:57:32.610Z,5.60
2023-01-15T18:00:25.309Z,5.63
2023-01-15T18:03:19.880Z,5.65
2023-01-15T18:05:59.941Z,5.70
2023-01-15T18:08:35.476Z,5.72
2023-01-15T18:11:12.105Z,5.64
2023-01-15T18:13:58.187Z,5.53
2023-01-15T18:16:31.020Z,5.60
2023-01-15T18:19:09.284Z,5.54
2023-01-15T18:21:48.728Z,5.61
2023-01-15T18:24:23.596Z,5.57
2023-01-15T18:27:00.926Z,5.64
2023-01-15T18:29:43.538Z,5.57
2023-01-15T18:32:13.311Z,5.50
2023-01-15T18:34:52.974Z,5.49
2023-01-15T18:37:31.130Z,5.44
2023-01-15T18:40:02.813Z,5.46
2023-01-15T18:42:55.972Z,5.51
2023-01-15T18:45:50.758Z,5.48
2023-01-15T18:48:29.592Z,5.34
2023-01-15T18:51:13.938Z,5.29
2023-01-15T18:53:54.111Z,5.45
2023-01-15T18:56:51.435Z,5.45
2023-01-15T18:59:29.709Z,5.25
2023-01-15T19:02:05.463Z,5.14
2023-01-15T19:04:43.748Z,5.09
2023-01-15T19:07:20.040Z,5.07
2023-01-15T19:09:52.157Z,5.04
2023-01-15T19:12:31.323Z,5.17
2023-01-15T19:15:22.633Z,5.16
2023-01-15T19:18:19.940Z,5.20
2023-01-15T19:20:51.017Z,5.14
2023-01-15T19:23:34.282Z,5.05
2023-01-15T19:26:11.682Z,5.03
2023-01-15T19:28:45.803Z,5.03
2023-01-15T19:31:37.545Z,5.01
2023-01-15T19:34:33.296Z,5.09
2023-01-15T19:37:08.681Z,5.13
2023-01-15T19:39:47.819Z,5.08
2023-01-15T19:42:42.713Z,5.16
2023-01-15T19:45:41.740Z,5.06
2023-01-15T19:48:34.667Z,5.05
2023-01-15T19:51:15.739Z,5.03
2023-01-15T19:53:48.894Z,5.06
2023-01-15T19:56:28.509Z,5.01
2023-01-15T19:59:06.718Z,5.05
2023-01-15T20:01:42.568Z,5.01
2023-01-15T20:04:21.742Z,5.05
2023-01-15T20:06:55.124Z,4.85
2023-01-15T20:09:37.901Z,4.82
2023-01-15T20:12:41.035Z,4.78
2023-01-15T20:15:24.107Z,4.75
2023-01-15T20:17:57.985Z,4.84
2023-01-15T20:20:37.779Z,5.02
2023-01-15T20:23:10.931Z,4.85
2023-01-15T20:25:55.604Z,4.82
2023-01-15T20:28:29.472Z,4.86
2023-01-15T20:31:07.191Z,4.75
2023-01-15T20:33:40.349Z,4.68
2023-01-15T20:36:23.238Z,4.66
2023-01-15T20:38:58.608Z,4.64
2023-01-15T20:41:55.635Z,4.66
2023-01-15T20:44:46.980Z,4.66
2023-01-15T20:47:49.617Z,4.66
2023-01-15T20:50:21.812Z,4.64
2023-01-15T20:53:10.668Z,4.62
2023-01-15T20:55:57.400Z,4.64
2023-01-15T20:58:40.015Z,4.73
2023-01-15T21:01:23.027Z,4.76
2023-01-15T21:04:01.630Z,4.67
2023-01-15T21:06:44.903Z,4.64
2023-01-15T21:09:16.733Z,4.60
2023-01-15T21:11:56.825Z,4.55
2023-01-15T21:14:38.408Z,4.60
2023-01-15T21:17:17.603Z,4.60
2023-01-15T21:20:05.163Z,4.54
2023-01-15T21:22:47.391Z,4.63
2023-01-15T21:25:25.790Z,4.61
2023-01-15T21:27:58.081Z,4.54
2023-01-15T21:30:30.687Z,4.56
2023-01-15T21:33:01.590Z,4.51
2023-01-15T21:35:48.414Z,4.48
2023-01-15T21:38:20.594Z,4.50
2023-01-15T21:41:12.466Z,4.57
2023-01-15T21:44:02.952Z,4.59
2023-01-15T21:46:33.488Z,4.58
2023-01-15T21:49:11.994Z,4.60
2023-01-15T21:51:51.317Z,4.64
2023-01-15T21:54:33.133Z,4.63
2023-01-15T21:57:11.644Z,4.66
2023-01-15T21:59:42.745Z,4.49
2023-01-15T22:02:33.173Z,4.44
2023-01-15T22:05:12.924Z,4.46
2023-01-15T22:07:49.050Z,4.43
2023-01-15T22:10:21.566Z,4.40
2023-01-15T22:12:53.019Z,4.50
2023-01-15T22:15:35.603Z,4.41
2023-01-15T22:18:08.487Z,4.34
2023-01-15T22:20:44.596Z,4.21
2023-01-15T22:23:22.940Z,4.10
2023-01-15T22:26:01.373Z,3.98
2023-01-15T22:28:44.015Z,3.89
2023-01-15T22:31:21.551Z,3.89
2023-01-15T22:33:56.773Z,3.84
2023-01-15T22:36:44.179Z,3.75
2023-01-15T22:39:21.932Z,3.69
2023-01-15T22:42:16.724Z,3.64
2023-01-15T22:44:56.157Z,3.62
2023-01-15T22:47:40.351Z,3.63
2023-01-15T22:50:13.339Z,3.67
2023-01-15T22:52:43.379Z,3.72
2023-01-15T22:55:24.651Z,3.79
2023-01-15T22:58:04.293Z,3.83
2023-01-15T23:00:42.392Z,3.84
2023-01-15T23:03:30.497Z,3.89
2023-01-15T23:06:10.836Z,3.93
2023-01-15T23:08:42.523Z,3.97
2023-01-15T23:11:19.160Z,4.01
2023-01-15T23:13:50.341Z,4.00
2023-01-15T23:16:25.985Z,4.05
2023-01-15T23:18:59.266Z,4.09
2023-01-15T23:21:29.261Z,4.10
2023-01-15T23:24:02.681Z,4.20
2023-01-15T23:26:41.098Z,4.33
2023-01-15T23:29:18.635Z,4.28
2023-01-15T23:31:56.723Z,4.22
2023-01-15T23:34:29.596Z,4.20
2023-01-15T23:37:11.554Z,4.16
2023-01-15T23:39:42.582Z,4.27
2023-01-15T23:42:33.317Z,4.31
2023-01-15T23:45:24.466Z,4.43
2023-01-15T23:47:54.055Z,4.56
2023-01-15T23:50:25.429Z,4.59
2023-01-15T23:53:01.302Z,4.64
2023-01-15T23:55:45.557Z,4.64
2023-01-15T23:58:20.624Z,4.66
